sensor_id;sensor_type;location;lat;lon;timestamp;pressure;altitude;pressure_sealevel;temperature;humidity
13594;BME280;6449;47.666;9.160;2024-02-21T00:04:47;98119.38;;;5.12;100.00
13594;BME280;6449;47.666;9.160;2024-02-21T00:09:40;98119.97;;;5.20;100.00
13594;BME280;6449;47.666;9.160;2024-02-21T00:14:35;98107.72;;;5.24;100.00
13594;BME280;6449;47.666;9.160;2024-02-21T00:19:31;98108.31;;;5.07;100.00
13594;BME280;6449;47.666;9.160;2024-02-21T00:24:25;98101.34;;;5.33;100.00
13594;BME280;6449;47.666;9.160;2024-02-21T00:29:19;98108.41;;;5.29;100.00
13594;BME280;6449;47.666;9.160;2024-02-21T00:34:15;98100.22;;;5.15;100.00
13594;BME280;6449;47.666;9.160;2024-02-21T00:39:10;98099.13;;;5.22;100.00
13594;BME280;6449;47.666;9.160;2024-02-21T00:44:03;98099.59;;;5.08;100.00
13594;BME280;6449;47.666;9.160;2024-02-21T00:49:01;98093.72;;;5.03;100.00
13594;BME280;6449;47.666;9.160;2024-02-21T00:53:54;98088.97;;;4.89;100.00
13594;BME280;6449;47.666;9.160;2024-02-21T00:58:49;98086.44;;;4.88;100.00
13594;BME280;6449;47.666;9.160;2024-02-21T01:03:58;98081.72;;;4.99;100.00
13594;BME280;6449;47.666;9.160;2024-02-21T01:08:52;98070.00;;;5.12;100.00
13594;BME280;6449;47.666;9.160;2024-02-21T01:13:49;98059.94;;;5.26;100.00
13594;BME280;6449;47.666;9.160;2024-02-21T01:18:43;98055.66;;;5.00;100.00
13594;BME280;6449;47.666;9.160;2024-02-21T01:23:37;98062.88;;;4.67;100.00
13594;BME280;6449;47.666;9.160;2024-02-21T01:28:31;98051.78;;;4.36;100.00
13594;BME280;6449;47.666;9.160;2024-02-21T01:33:26;98051.00;;;4.60;100.00
13594;BME280;6449;47.666;9.160;2024-02-21T01:38:19;98052.47;;;4.67;100.00
13594;BME280;6449;47.666;9.160;2024-02-21T01:43:20;98061.19;;;4.66;100.00
13594;BME280;6449;47.666;9.160;2024-02-21T01:48:15;98064.88;;;4.59;100.00
13594;BME280;6449;47.666;9.160;2024-02-21T01:53:13;98052.19;;;4.77;100.00
13594;BME280;6449;47.666;9.160;2024-02-21T01:58:10;98032.25;;;5.02;100.00
13594;BME280;6449;47.666;9.160;2024-02-21T02:03:05;98033.63;;;5.12;100.00
13594;BME280;6449;47.666;9.160;2024-02-21T02:07:59;98025.81;;;4.87;100.00
13594;BME280;6449;47.666;9.160;2024-02-21T02:12:54;98004.34;;;5.07;100.00
13594;BME280;6449;47.666;9.160;2024-02-21T02:17:48;97999.16;;;5.07;100.00
13594;BME280;6449;47.666;9.160;2024-02-21T02:22:43;97992.28;;;4.81;100.00
13594;BME280;6449;47.666;9.160;2024-02-21T02:27:44;97981.25;;;4.75;100.00
13594;BME280;6449;47.666;9.160;2024-02-21T02:32:38;97989.94;;;4.73;100.00
13594;BME280;6449;47.666;9.160;2024-02-21T02:37:32;97985.16;;;4.86;100.00
13594;BME280;6449;47.666;9.160;2024-02-21T02:42:25;97978.66;;;4.75;100.00
13594;BME280;6449;47.666;9.160;2024-02-21T02:47:23;97969.81;;;4.80;100.00
13594;BME280;6449;47.666;9.160;2024-02-21T02:52:18;97968.38;;;4.95;100.00
13594;BME280;6449;47.666;9.160;2024-02-21T02:57:12;97958.50;;;4.81;100.00
13594;BME280;6449;47.666;9.160;2024-02-21T03:02:06;97945.78;;;4.73;100.00
13594;BME280;6449;47.666;9.160;2024-02-21T03:07:01;97944.41;;;4.63;100.00
13594;BME280;6449;47.666;9.160;2024-02-21T03:11:55;97948.75;;;4.63;100.00
13594;BME280;6449;47.666;9.160;2024-02-21T03:16:54;97927.50;;;4.77;100.00
13594;BME280;6449;47.666;9.160;2024-02-21T03:21:48;97930.72;;;4.83;100.00
13594;BME280;6449;47.666;9.160;2024-02-21T03:26:44;97927.41;;;4.80;100.00
13594;BME280;6449;47.666;9.160;2024-02-21T03:31:38;97899.28;;;4.91;100.00
13594;BME280;6449;47.666;9.160;2024-02-21T03:36:34;97893.22;;;4.90;100.00
13594;BME280;6449;47.666;9.160;2024-02-21T03:41:27;97893.28;;;4.65;100.00
13594;BME280;6449;47.666;9.160;2024-02-21T03:46:24;97882.44;;;4.78;100.00
13594;BME280;6449;47.666;9.160;2024-02-21T03:51:18;97883.78;;;4.88;100.00
13594;BME280;6449;47.666;9.160;2024-02-21T03:56:12;97877.81;;;4.86;100.00
13594;BME280;6449;47.666;9.160;2024-02-21T04:01:05;97871.94;;;4.81;100.00
13594;BME280;6449;47.666;9.160;2024-02-21T04:06:00;97863.06;;;4.86;100.00
13594;BME280;6449;47.666;9.160;2024-02-21T04:10:54;97849.66;;;4.97;100.00
13594;BME280;6449;47.666;9.160;2024-02-21T04:15:48;97839.22;;;4.98;100.00
13594;BME280;6449;47.666;9.160;2024-02-21T04:20:41;97829.47;;;5.04;100.00
13594;BME280;6449;47.666;9.160;2024-02-21T04:25:37;97820.75;;;5.28;100.00
13594;BME280;6449;47.666;9.160;2024-02-21T04:30:30;97833.00;;;5.24;100.00
13594;BME280;6449;47.666;9.160;2024-02-21T04:35:24;97823.50;;;5.23;100.00
13594;BME280;6449;47.666;9.160;2024-02-21T04:40:18;97813.47;;;5.14;100.00
13594;BME280;6449;47.666;9.160;2024-02-21T04:45:13;97825.44;;;4.96;100.00
13594;BME280;6449;47.666;9.160;2024-02-21T04:50:07;97833.50;;;4.89;100.00
13594;BME280;6449;47.666;9.160;2024-02-21T04:55:01;97832.00;;;4.83;100.00
13594;BME280;6449;47.666;9.160;2024-02-21T04:59:54;97831.03;;;4.86;100.00
13594;BME280;6449;47.666;9.160;2024-02-21T05:04:49;97821.09;;;4.73;100.00
13594;BME280;6449;47.666;9.160;2024-02-21T05:09:43;97803.47;;;4.82;100.00
13594;BME280;6449;47.666;9.160;2024-02-21T05:14:36;97783.13;;;4.93;100.00
13594;BME280;6449;47.666;9.160;2024-02-21T05:19:30;97767.22;;;5.00;100.00
13594;BME280;6449;47.666;9.160;2024-02-21T05:24:27;97775.69;;;4.84;100.00
13594;BME280;6449;47.666;9.160;2024-02-21T05:29:22;97774.59;;;4.67;100.00
13594;BME280;6449;47.666;9.160;2024-02-21T05:34:15;97779.69;;;4.47;100.00
13594;BME280;6449;47.666;9.160;2024-02-21T05:39:09;97775.28;;;4.49;100.00
13594;BME280;6449;47.666;9.160;2024-02-21T05:44:04;97751.34;;;4.64;100.00
13594;BME280;6449;47.666;9.160;2024-02-21T05:48:58;97746.59;;;4.76;100.00
13594;BME280;6449;47.666;9.160;2024-02-21T05:53:53;97745.78;;;4.73;100.00
13594;BME280;6449;47.666;9.160;2024-02-21T05:58:47;97744.09;;;4.72;100.00
13594;BME280;6449;47.666;9.160;2024-02-21T06:03:41;97743.69;;;4.38;100.00
13594;BME280;6449;47.666;9.160;2024-02-21T06:08:35;97744.03;;;4.29;100.00
13594;BME280;6449;47.666;9.160;2024-02-21T06:13:28;97753.84;;;4.20;100.00
13594;BME280;6449;47.666;9.160;2024-02-21T06:18:22;97755.09;;;4.34;100.00
13594;BME280;6449;47.666;9.160;2024-02-21T06:23:18;97731.66;;;4.59;100.00
13594;BME280;6449;47.666;9.160;2024-02-21T06:28:12;97719.75;;;4.75;100.00
13594;BME280;6449;47.666;9.160;2024-02-21T06:33:06;97732.38;;;4.62;100.00
13594;BME280;6449;47.666;9.160;2024-02-21T06:38:00;97723.78;;;4.60;100.00
13594;BME280;6449;47.666;9.160;2024-02-21T06:42:56;97728.50;;;4.51;100.00
13594;BME280;6449;47.666;9.160;2024-02-21T06:47:54;97735.78;;;4.41;100.00
13594;BME280;6449;47.666;9.160;2024-02-21T06:52:48;97718.50;;;4.40;100.00
13594;BME280;6449;47.666;9.160;2024-02-21T06:57:41;97705.06;;;4.52;100.00
13594;BME280;6449;47.666;9.160;2024-02-21T07:02:36;97708.03;;;4.43;100.00
13594;BME280;6449;47.666;9.160;2024-02-21T07:07:33;97709.31;;;4.31;100.00
13594;BME280;6449;47.666;9.160;2024-02-21T07:12:27;97714.78;;;4.47;100.00
13594;BME280;6449;47.666;9.160;2024-02-21T07:17:21;97714.75;;;4.70;100.00
13594;BME280;6449;47.666;9.160;2024-02-21T07:22:21;97733.94;;;4.66;100.00
13594;BME280;6449;47.666;9.160;2024-02-21T07:27:19;97726.47;;;4.81;100.00
13594;BME280;6449;47.666;9.160;2024-02-21T07:37:07;97733.00;;;5.11;100.00
13594;BME280;6449;47.666;9.160;2024-02-21T07:42:05;97715.91;;;5.28;100.00
13594;BME280;6449;47.666;9.160;2024-02-21T07:46:58;97728.84;;;5.49;100.00
13594;BME280;6449;47.666;9.160;2024-02-21T07:51:52;97732.34;;;5.48;100.00
13594;BME280;6449;47.666;9.160;2024-02-21T07:57:22;97726.38;;;5.87;100.00
13594;BME280;6449;47.666;9.160;2024-02-21T08:02:16;97720.59;;;5.81;100.00
13594;BME280;6449;47.666;9.160;2024-02-21T08:07:10;97702.25;;;5.63;100.00
13594;BME280;6449;47.666;9.160;2024-02-21T08:12:05;97675.28;;;5.85;100.00
13594;BME280;6449;47.666;9.160;2024-02-21T08:17:00;97677.13;;;5.83;100.00
13594;BME280;6449;47.666;9.160;2024-02-21T08:21:54;97681.28;;;5.87;100.00
13594;BME280;6449;47.666;9.160;2024-02-21T08:31:56;97693.22;;;5.92;100.00
13594;BME280;6449;47.666;9.160;2024-02-21T08:41:59;97692.28;;;5.93;100.00
13594;BME280;6449;47.666;9.160;2024-02-21T08:51:59;97680.56;;;6.22;100.00
13594;BME280;6449;47.666;9.160;2024-02-21T08:56:55;97676.34;;;6.20;100.00
13594;BME280;6449;47.666;9.160;2024-02-21T09:07:00;97673.34;;;6.65;100.00
13594;BME280;6449;47.666;9.160;2024-02-21T09:11:54;97678.75;;;6.79;100.00
13594;BME280;6449;47.666;9.160;2024-02-21T09:16:47;97664.78;;;6.63;100.00
13594;BME280;6449;47.666;9.160;2024-02-21T09:21:41;97673.84;;;6.73;100.00
13594;BME280;6449;47.666;9.160;2024-02-21T09:26:36;97664.16;;;6.75;100.00
13594;BME280;6449;47.666;9.160;2024-02-21T09:31:29;97654.63;;;6.93;100.00
13594;BME280;6449;47.666;9.160;2024-02-21T09:36:23;97646.34;;;7.02;100.00
13594;BME280;6449;47.666;9.160;2024-02-21T09:41:18;97647.53;;;7.14;100.00
13594;BME280;6449;47.666;9.160;2024-02-21T09:46:23;97650.03;;;7.33;100.00
13594;BME280;6449;47.666;9.160;2024-02-21T09:56:33;97646.56;;;7.32;100.00
13594;BME280;6449;47.666;9.160;2024-02-21T10:01:28;97637.38;;;7.43;100.00
13594;BME280;6449;47.666;9.160;2024-02-21T10:06:26;97635.19;;;7.51;100.00
13594;BME280;6449;47.666;9.160;2024-02-21T10:11:25;97626.09;;;7.75;100.00
13594;BME280;6449;47.666;9.160;2024-02-21T10:16:19;97619.00;;;7.77;100.00
13594;BME280;6449;47.666;9.160;2024-02-21T10:21:17;97616.19;;;7.98;100.00
13594;BME280;6449;47.666;9.160;2024-02-21T10:26:11;97607.13;;;8.05;100.00
13594;BME280;6449;47.666;9.160;2024-02-21T10:31:04;97596.69;;;8.05;100.00
13594;BME280;6449;47.666;9.160;2024-02-21T10:36:10;97603.41;;;8.40;100.00
13594;BME280;6449;47.666;9.160;2024-02-21T10:41:06;97581.34;;;8.46;100.00
13594;BME280;6449;47.666;9.160;2024-02-21T10:46:03;97581.16;;;8.49;100.00
13594;BME280;6449;47.666;9.160;2024-02-21T10:51:10;97572.84;;;8.43;100.00
13594;BME280;6449;47.666;9.160;2024-02-21T10:56:21;97558.25;;;8.54;100.00
13594;BME280;6449;47.666;9.160;2024-02-21T11:01:17;97544.91;;;8.59;100.00
13594;BME280;6449;47.666;9.160;2024-02-21T11:06:13;97550.25;;;8.72;100.00
13594;BME280;6449;47.666;9.160;2024-02-21T11:11:12;97533.78;;;9.00;100.00
13594;BME280;6449;47.666;9.160;2024-02-21T11:16:25;97526.16;;;8.97;100.00
13594;BME280;6449;47.666;9.160;2024-02-21T11:21:19;97507.47;;;9.03;100.00
13594;BME280;6449;47.666;9.160;2024-02-21T11:26:19;97504.13;;;9.15;100.00
13594;BME280;6449;47.666;9.160;2024-02-21T11:31:15;97496.66;;;9.23;100.00
13594;BME280;6449;47.666;9.160;2024-02-21T11:36:09;97479.84;;;9.13;100.00
13594;BME280;6449;47.666;9.160;2024-02-21T11:41:03;97468.06;;;9.34;100.00
13594;BME280;6449;47.666;9.160;2024-02-21T11:46:04;97467.28;;;9.47;100.00
13594;BME280;6449;47.666;9.160;2024-02-21T11:50:58;97452.97;;;9.52;100.00
13594;BME280;6449;47.666;9.160;2024-02-21T11:55:52;97431.28;;;9.64;100.00
13594;BME280;6449;47.666;9.160;2024-02-21T12:00:47;97422.94;;;9.72;100.00
13594;BME280;6449;47.666;9.160;2024-02-21T12:05:50;97413.41;;;9.71;100.00
13594;BME280;6449;47.666;9.160;2024-02-21T12:10:46;97399.09;;;9.89;100.00
13594;BME280;6449;47.666;9.160;2024-02-21T12:15:48;97395.50;;;9.78;100.00
13594;BME280;6449;47.666;9.160;2024-02-21T12:20:42;97372.72;;;9.92;100.00
13594;BME280;6449;47.666;9.160;2024-02-21T12:25:39;97363.22;;;10.17;100.00
13594;BME280;6449;47.666;9.160;2024-02-21T12:30:33;97350.78;;;10.20;100.00
13594;BME280;6449;47.666;9.160;2024-02-21T12:35:29;97354.69;;;10.28;100.00
13594;BME280;6449;47.666;9.160;2024-02-21T12:40:24;97346.00;;;10.27;100.00
13594;BME280;6449;47.666;9.160;2024-02-21T12:45:20;97338.22;;;10.38;100.00
13594;BME280;6449;47.666;9.160;2024-02-21T12:50:15;97327.44;;;10.43;100.00
13594;BME280;6449;47.666;9.160;2024-02-21T12:55:08;97314.75;;;10.37;100.00
13594;BME280;6449;47.666;9.160;2024-02-21T13:00:08;97309.41;;;10.51;100.00
13594;BME280;6449;47.666;9.160;2024-02-21T13:05:05;97290.97;;;10.40;100.00
13594;BME280;6449;47.666;9.160;2024-02-21T13:10:00;97287.63;;;10.25;100.00
13594;BME280;6449;47.666;9.160;2024-02-21T13:14:53;97271.16;;;10.23;100.00
13594;BME280;6449;47.666;9.160;2024-02-21T13:19:47;97249.03;;;10.27;100.00
13594;BME280;6449;47.666;9.160;2024-02-21T13:24:45;97246.19;;;10.17;100.00
13594;BME280;6449;47.666;9.160;2024-02-21T13:29:39;97230.88;;;9.98;100.00
13594;BME280;6449;47.666;9.160;2024-02-21T13:34:32;97227.56;;;9.96;100.00
13594;BME280;6449;47.666;9.160;2024-02-21T13:39:26;97211.31;;;9.91;100.00
13594;BME280;6449;47.666;9.160;2024-02-21T13:44:21;97203.88;;;9.98;100.00
13594;BME280;6449;47.666;9.160;2024-02-21T13:49:15;97182.50;;;9.91;100.00
13594;BME280;6449;47.666;9.160;2024-02-21T13:54:09;97166.69;;;9.93;100.00
13594;BME280;6449;47.666;9.160;2024-02-21T13:59:03;97159.31;;;9.85;100.00
13594;BME280;6449;47.666;9.160;2024-02-21T14:03:59;97149.09;;;9.82;100.00
13594;BME280;6449;47.666;9.160;2024-02-21T14:08:56;97148.84;;;9.85;100.00
13594;BME280;6449;47.666;9.160;2024-02-21T14:13:49;97154.00;;;9.87;100.00
13594;BME280;6449;47.666;9.160;2024-02-21T14:18:46;97133.88;;;9.75;100.00
13594;BME280;6449;47.666;9.160;2024-02-21T14:23:44;97127.09;;;9.72;100.00
13594;BME280;6449;47.666;9.160;2024-02-21T14:28:41;97120.91;;;9.60;100.00
13594;BME280;6449;47.666;9.160;2024-02-21T14:33:35;97106.91;;;9.49;100.00
13594;BME280;6449;47.666;9.160;2024-02-21T14:38:29;97102.28;;;9.52;100.00
13594;BME280;6449;47.666;9.160;2024-02-21T14:43:28;97107.19;;;9.57;100.00
13594;BME280;6449;47.666;9.160;2024-02-21T14:48:22;97103.44;;;9.61;100.00
13594;BME280;6449;47.666;9.160;2024-02-21T14:53:17;97106.69;;;9.64;100.00
13594;BME280;6449;47.666;9.160;2024-02-21T14:58:11;97103.56;;;9.59;100.00
13594;BME280;6449;47.666;9.160;2024-02-21T15:03:07;97100.50;;;9.53;100.00
13594;BME280;6449;47.666;9.160;2024-02-21T15:08:00;97102.72;;;9.59;100.00
13594;BME280;6449;47.666;9.160;2024-02-21T15:12:54;97092.03;;;9.49;100.00
13594;BME280;6449;47.666;9.160;2024-02-21T15:17:49;97088.88;;;9.57;100.00
13594;BME280;6449;47.666;9.160;2024-02-21T15:22:48;97082.59;;;9.47;100.00
13594;BME280;6449;47.666;9.160;2024-02-21T15:27:42;97079.97;;;9.47;100.00
13594;BME280;6449;47.666;9.160;2024-02-21T15:32:36;97066.38;;;9.41;100.00
13594;BME280;6449;47.666;9.160;2024-02-21T15:37:32;97070.56;;;9.31;100.00
13594;BME280;6449;47.666;9.160;2024-02-21T15:42:28;97056.44;;;9.34;100.00
13594;BME280;6449;47.666;9.160;2024-02-21T15:47:27;97051.22;;;9.34;100.00
13594;BME280;6449;47.666;9.160;2024-02-21T15:52:20;97050.03;;;9.25;100.00
13594;BME280;6449;47.666;9.160;2024-02-21T15:57:14;97044.59;;;9.15;100.00
13594;BME280;6449;47.666;9.160;2024-02-21T16:02:12;97033.53;;;9.12;100.00
13594;BME280;6449;47.666;9.160;2024-02-21T16:07:05;97031.72;;;9.00;100.00
13594;BME280;6449;47.666;9.160;2024-02-21T16:11:59;97036.75;;;8.90;100.00
13594;BME280;6449;47.666;9.160;2024-02-21T16:16:57;97025.00;;;8.83;100.00
13594;BME280;6449;47.666;9.160;2024-02-21T16:21:54;97026.13;;;8.66;100.00
13594;BME280;6449;47.666;9.160;2024-02-21T16:26:48;97019.25;;;8.65;100.00
13594;BME280;6449;47.666;9.160;2024-02-21T16:31:46;97002.91;;;8.61;100.00
13594;BME280;6449;47.666;9.160;2024-02-21T16:36:41;96996.31;;;8.56;100.00
13594;BME280;6449;47.666;9.160;2024-02-21T16:41:36;96991.75;;;8.59;100.00
13594;BME280;6449;47.666;9.160;2024-02-21T16:46:29;96991.22;;;8.54;100.00
13594;BME280;6449;47.666;9.160;2024-02-21T16:51:23;96981.41;;;8.58;100.00
13594;BME280;6449;47.666;9.160;2024-02-21T16:56:17;96970.41;;;8.53;100.00
13594;BME280;6449;47.666;9.160;2024-02-21T17:01:13;96966.22;;;8.50;100.00
13594;BME280;6449;47.666;9.160;2024-02-21T17:06:08;96961.81;;;8.51;100.00
13594;BME280;6449;47.666;9.160;2024-02-21T17:11:09;96958.19;;;8.53;100.00
13594;BME280;6449;47.666;9.160;2024-02-21T17:16:05;96957.00;;;8.45;100.00
13594;BME280;6449;47.666;9.160;2024-02-21T17:21:03;96956.59;;;8.51;100.00
13594;BME280;6449;47.666;9.160;2024-02-21T17:25:59;96955.13;;;8.47;100.00
13594;BME280;6449;47.666;9.160;2024-02-21T17:30:53;96964.84;;;8.45;100.00
13594;BME280;6449;47.666;9.160;2024-02-21T17:35:49;96951.91;;;8.43;100.00
13594;BME280;6449;47.666;9.160;2024-02-21T17:40:47;96948.16;;;8.47;100.00
13594;BME280;6449;47.666;9.160;2024-02-21T17:45:43;96939.03;;;8.40;100.00
13594;BME280;6449;47.666;9.160;2024-02-21T17:50:36;96934.13;;;8.48;100.00
13594;BME280;6449;47.666;9.160;2024-02-21T17:55:34;96936.34;;;8.42;100.00
13594;BME280;6449;47.666;9.160;2024-02-21T18:00:30;96917.72;;;8.46;100.00
13594;BME280;6449;47.666;9.160;2024-02-21T18:05:24;96914.50;;;8.43;100.00
13594;BME280;6449;47.666;9.160;2024-02-21T18:10:17;96905.91;;;8.40;100.00
13594;BME280;6449;47.666;9.160;2024-02-21T18:15:11;96902.16;;;8.45;100.00
13594;BME280;6449;47.666;9.160;2024-02-21T18:20:10;96891.50;;;8.48;100.00
13594;BME280;6449;47.666;9.160;2024-02-21T18:25:09;96891.81;;;8.56;100.00
13594;BME280;6449;47.666;9.160;2024-02-21T18:30:08;96881.13;;;8.46;100.00
13594;BME280;6449;47.666;9.160;2024-02-21T18:35:02;96883.66;;;8.48;100.00
13594;BME280;6449;47.666;9.160;2024-02-21T18:39:58;96878.75;;;8.43;100.00
13594;BME280;6449;47.666;9.160;2024-02-21T18:44:51;96872.28;;;8.49;100.00
13594;BME280;6449;47.666;9.160;2024-02-21T18:49:46;96862.97;;;8.45;100.00
13594;BME280;6449;47.666;9.160;2024-02-21T18:54:40;96860.34;;;8.45;100.00
13594;BME280;6449;47.666;9.160;2024-02-21T18:59:37;96856.06;;;8.44;100.00
13594;BME280;6449;47.666;9.160;2024-02-21T19:04:38;96855.84;;;8.47;100.00
13594;BME280;6449;47.666;9.160;2024-02-21T19:09:34;96849.06;;;8.44;100.00
13594;BME280;6449;47.666;9.160;2024-02-21T19:14:27;96859.38;;;8.33;100.00
13594;BME280;6449;47.666;9.160;2024-02-21T19:19:22;96847.97;;;8.34;100.00
13594;BME280;6449;47.666;9.160;2024-02-21T19:24:16;96842.34;;;8.27;100.00
13594;BME280;6449;47.666;9.160;2024-02-21T19:29:10;96840.97;;;8.22;100.00
13594;BME280;6449;47.666;9.160;2024-02-21T19:34:03;96849.34;;;8.27;100.00
13594;BME280;6449;47.666;9.160;2024-02-21T19:39:01;96842.53;;;8.24;100.00
13594;BME280;6449;47.666;9.160;2024-02-21T19:43:55;96825.94;;;8.25;100.00
13594;BME280;6449;47.666;9.160;2024-02-21T19:48:49;96816.22;;;8.27;100.00
13594;BME280;6449;47.666;9.160;2024-02-21T19:53:43;96807.56;;;8.27;100.00
13594;BME280;6449;47.666;9.160;2024-02-21T19:58:38;96786.66;;;8.27;100.00
13594;BME280;6449;47.666;9.160;2024-02-21T20:03:32;96759.72;;;8.26;100.00
13594;BME280;6449;47.666;9.160;2024-02-21T20:08:25;96784.59;;;8.32;100.00
13594;BME280;6449;47.666;9.160;2024-02-21T20:13:19;96787.28;;;8.30;100.00
13594;BME280;6449;47.666;9.160;2024-02-21T20:18:14;96759.31;;;8.45;100.00
13594;BME280;6449;47.666;9.160;2024-02-21T20:23:08;96760.84;;;8.35;100.00
13594;BME280;6449;47.666;9.160;2024-02-21T20:28:07;96749.47;;;8.36;100.00
13594;BME280;6449;47.666;9.160;2024-02-21T20:33:04;96747.19;;;8.31;100.00
13594;BME280;6449;47.666;9.160;2024-02-21T20:38:03;96730.25;;;8.24;100.00
13594;BME280;6449;47.666;9.160;2024-02-21T20:42:57;96737.44;;;8.33;100.00
13594;BME280;6449;47.666;9.160;2024-02-21T20:47:54;96726.88;;;8.35;100.00
13594;BME280;6449;47.666;9.160;2024-02-21T20:52:47;96717.50;;;8.32;100.00
13594;BME280;6449;47.666;9.160;2024-02-21T20:57:42;96705.00;;;8.37;100.00
13594;BME280;6449;47.666;9.160;2024-02-21T21:02:38;96688.66;;;8.34;100.00
13594;BME280;6449;47.666;9.160;2024-02-21T21:07:33;96677.22;;;8.36;100.00
13594;BME280;6449;47.666;9.160;2024-02-21T21:12:26;96679.38;;;8.43;100.00
13594;BME280;6449;47.666;9.160;2024-02-21T21:17:21;96662.06;;;8.42;100.00
13594;BME280;6449;47.666;9.160;2024-02-21T21:22:15;96664.16;;;8.36;100.00
13594;BME280;6449;47.666;9.160;2024-02-21T21:27:09;96662.13;;;8.40;100.00
13594;BME280;6449;47.666;9.160;2024-02-21T21:32:06;96652.75;;;8.37;100.00
13594;BME280;6449;47.666;9.160;2024-02-21T21:37:04;96648.88;;;8.43;100.00
13594;BME280;6449;47.666;9.160;2024-02-21T21:41:58;96624.53;;;8.43;100.00
13594;BME280;6449;47.666;9.160;2024-02-21T21:46:55;96615.75;;;8.44;100.00
13594;BME280;6449;47.666;9.160;2024-02-21T21:51:48;96608.03;;;8.42;100.00
13594;BME280;6449;47.666;9.160;2024-02-21T21:56:43;96600.41;;;8.39;100.00
13594;BME280;6449;47.666;9.160;2024-02-21T22:01:37;96584.84;;;8.37;100.00
13594;BME280;6449;47.666;9.160;2024-02-21T22:06:31;96579.63;;;8.37;100.00
13594;BME280;6449;47.666;9.160;2024-02-21T22:11:25;96566.81;;;8.46;100.00
13594;BME280;6449;47.666;9.160;2024-02-21T22:16:20;96561.84;;;8.43;100.00
13594;BME280;6449;47.666;9.160;2024-02-21T22:21:17;96548.22;;;8.50;100.00
13594;BME280;6449;47.666;9.160;2024-02-21T22:26:10;96543.09;;;8.49;100.00
13594;BME280;6449;47.666;9.160;2024-02-21T22:31:05;96536.22;;;8.48;100.00
13594;BME280;6449;47.666;9.160;2024-02-21T22:36:03;96533.59;;;8.48;100.00
13594;BME280;6449;47.666;9.160;2024-02-21T22:40:59;96539.03;;;8.45;100.00
13594;BME280;6449;47.666;9.160;2024-02-21T22:45:52;96535.81;;;8.41;100.00
13594;BME280;6449;47.666;9.160;2024-02-21T22:50:48;96534.66;;;8.45;100.00
13594;BME280;6449;47.666;9.160;2024-02-21T22:55:43;96527.88;;;8.43;100.00
13594;BME280;6449;47.666;9.160;2024-02-21T23:00:36;96529.66;;;8.42;100.00
13594;BME280;6449;47.666;9.160;2024-02-21T23:05:30;96513.28;;;8.51;100.00
13594;BME280;6449;47.666;9.160;2024-02-21T23:10:25;96491.81;;;8.48;100.00
13594;BME280;6449;47.666;9.160;2024-02-21T23:15:20;96501.19;;;8.50;100.00
13594;BME280;6449;47.666;9.160;2024-02-21T23:20:14;96480.56;;;8.58;100.00
13594;BME280;6449;47.666;9.160;2024-02-21T23:25:09;96486.63;;;8.59;100.00
13594;BME280;6449;47.666;9.160;2024-02-21T23:30:08;96467.19;;;8.74;100.00
13594;BME280;6449;47.666;9.160;2024-02-21T23:35:08;96463.84;;;8.83;100.00
13594;BME280;6449;47.666;9.160;2024-02-21T23:40:02;96452.84;;;9.02;100.00
13594;BME280;6449;47.666;9.160;2024-02-21T23:44:55;96441.06;;;9.30;100.00
13594;BME280;6449;47.666;9.160;2024-02-21T23:49:50;96436.56;;;9.32;100.00
13594;BME280;6449;47.666;9.160;2024-02-21T23:54:45;96428.94;;;9.40;100.00
13594;BME280;6449;47.666;9.160;2024-02-21T23:59:39;96420.84;;;9.55;100.00
